sensor_id;sensor_type;location;lat;lon;timestamp;temperature;humidity
52899;DHT22;38763;53.096;6.062;2022-11-20T00:00:57;-0.90;99.90
52899;DHT22;38763;53.096;6.062;2022-11-20T00:03:23;-0.90;99.90
52899;DHT22;38763;53.096;6.062;2022-11-20T00:05:48;-0.80;99.90
52899;DHT22;38763;53.096;6.062;2022-11-20T00:08:14;-0.80;99.90
52899;DHT22;38763;53.096;6.062;2022-11-20T00:10:40;-0.90;99.90
52899;DHT22;38763;53.096;6.062;2022-11-20T00:13:06;-0.80;99.90
52899;DHT22;38763;53.096;6.062;2022-11-20T00:15:32;-0.90;99.90
52899;DHT22;38763;53.096;6.062;2022-11-20T00:17:57;-0.90;99.90
52899;DHT22;38763;53.096;6.062;2022-11-20T00:20:23;-0.90;99.90
52899;DHT22;38763;53.096;6.062;2022-11-20T00:22:50;-0.90;99.90
52899;DHT22;38763;53.096;6.062;2022-11-20T00:25:16;-0.90;99.90
52899;DHT22;38763;53.096;6.062;2022-11-20T00:27:41;-0.90;99.90
52899;DHT22;38763;53.096;6.062;2022-11-20T00:30:07;-0.80;99.90
52899;DHT22;38763;53.096;6.062;2022-11-20T00:32:33;-0.90;99.90
52899;DHT22;38763;53.096;6.062;2022-11-20T00:34:59;-0.90;99.90
52899;DHT22;38763;53.096;6.062;2022-11-20T00:37:24;-0.80;99.90
52899;DHT22;38763;53.096;6.062;2022-11-20T00:39:50;-0.80;99.90
52899;DHT22;38763;53.096;6.062;2022-11-20T00:42:15;-0.80;99.90
52899;DHT22;38763;53.096;6.062;2022-11-20T00:44:41;-0.80;99.90
52899;DHT22;38763;53.096;6.062;2022-11-20T00:47:07;-0.70;99.90
52899;DHT22;38763;53.096;6.062;2022-11-20T00:49:32;-0.80;99.90
52899;DHT22;38763;53.096;6.062;2022-11-20T00:51:58;-0.90;99.90
52899;DHT22;38763;53.096;6.062;2022-11-20T00:54:23;-0.90;99.90
52899;DHT22;38763;53.096;6.062;2022-11-20T00:56:49;-0.90;99.90
52899;DHT22;38763;53.096;6.062;2022-11-20T00:59:14;-0.90;99.90
52899;DHT22;38763;53.096;6.062;2022-11-20T01:01:40;-0.90;99.90
52899;DHT22;38763;53.096;6.062;2022-11-20T01:04:06;-1.00;99.90
52899;DHT22;38763;53.096;6.062;2022-11-20T01:06:34;-0.90;99.90
52899;DHT22;38763;53.096;6.062;2022-11-20T01:09:03;-0.90;99.90
52899;DHT22;38763;53.096;6.062;2022-11-20T01:11:32;-0.90;99.90
52899;DHT22;38763;53.096;6.062;2022-11-20T01:13:59;-0.90;99.90
52899;DHT22;38763;53.096;6.062;2022-11-20T01:16:31;-0.90;99.90
52899;DHT22;38763;53.096;6.062;2022-11-20T01:18:59;-0.90;99.90
52899;DHT22;38763;53.096;6.062;2022-11-20T01:21:30;-0.80;99.90
52899;DHT22;38763;53.096;6.062;2022-11-20T01:23:57;-0.90;99.90
52899;DHT22;38763;53.096;6.062;2022-11-20T01:26:25;-0.80;99.90
52899;DHT22;38763;53.096;6.062;2022-11-20T01:28:51;-0.80;99.90
52899;DHT22;38763;53.096;6.062;2022-11-20T01:33:48;-0.90;99.90
52899;DHT22;38763;53.096;6.062;2022-11-20T01:36:15;-0.90;99.90
52899;DHT22;38763;53.096;6.062;2022-11-20T01:38:42;-0.80;99.90
52899;DHT22;38763;53.096;6.062;2022-11-20T01:41:08;-0.80;99.90
52899;DHT22;38763;53.096;6.062;2022-11-20T01:43:35;-0.80;99.90
52899;DHT22;38763;53.096;6.062;2022-11-20T01:46:02;-0.90;99.90
52899;DHT22;38763;53.096;6.062;2022-11-20T01:48:33;-0.80;99.90
52899;DHT22;38763;53.096;6.062;2022-11-20T01:51:01;-0.80;99.90
52899;DHT22;38763;53.096;6.062;2022-11-20T01:53:32;-0.70;99.90
52899;DHT22;38763;53.096;6.062;2022-11-20T01:56:01;-0.80;99.90
52899;DHT22;38763;53.096;6.062;2022-11-20T01:58:31;-0.80;99.90
52899;DHT22;38763;53.096;6.062;2022-11-20T02:00:57;-0.80;99.90
52899;DHT22;38763;53.096;6.062;2022-11-20T02:03:23;-0.80;99.90
52899;DHT22;38763;53.096;6.062;2022-11-20T02:06:10;-0.70;99.90
52899;DHT22;38763;53.096;6.062;2022-11-20T02:08:38;-0.80;99.90
52899;DHT22;38763;53.096;6.062;2022-11-20T02:11:03;-0.70;99.90
52899;DHT22;38763;53.096;6.062;2022-11-20T02:13:29;-0.70;99.90
52899;DHT22;38763;53.096;6.062;2022-11-20T02:16:16;-0.80;99.90
52899;DHT22;38763;53.096;6.062;2022-11-20T02:18:44;-0.70;99.90
52899;DHT22;38763;53.096;6.062;2022-11-20T02:21:18;-0.70;99.90
52899;DHT22;38763;53.096;6.062;2022-11-20T02:23:59;-0.70;99.90
52899;DHT22;38763;53.096;6.062;2022-11-20T02:26:26;-0.70;99.90
52899;DHT22;38763;53.096;6.062;2022-11-20T02:28:52;-0.60;99.90
52899;DHT22;38763;53.096;6.062;2022-11-20T02:31:18;-0.60;99.90
52899;DHT22;38763;53.096;6.062;2022-11-20T02:33:44;-0.60;99.90
52899;DHT22;38763;53.096;6.062;2022-11-20T02:36:11;-0.50;99.90
52899;DHT22;38763;53.096;6.062;2022-11-20T02:38:39;-0.60;99.90
52899;DHT22;38763;53.096;6.062;2022-11-20T02:41:05;-0.50;99.90
52899;DHT22;38763;53.096;6.062;2022-11-20T02:43:31;-0.50;99.90
52899;DHT22;38763;53.096;6.062;2022-11-20T02:45:56;-0.50;99.90
52899;DHT22;38763;53.096;6.062;2022-11-20T02:48:22;-0.50;99.90
52899;DHT22;38763;53.096;6.062;2022-11-20T02:50:47;-0.50;99.90
52899;DHT22;38763;53.096;6.062;2022-11-20T02:53:13;-0.50;99.90
52899;DHT22;38763;53.096;6.062;2022-11-20T02:55:39;-0.50;99.90
52899;DHT22;38763;53.096;6.062;2022-11-20T02:58:04;-0.40;99.90
52899;DHT22;38763;53.096;6.062;2022-11-20T03:00:30;-0.40;99.90
52899;DHT22;38763;53.096;6.062;2022-11-20T03:02:55;-0.50;99.90
52899;DHT22;38763;53.096;6.062;2022-11-20T03:05:22;-0.40;99.90
52899;DHT22;38763;53.096;6.062;2022-11-20T03:07:48;-0.50;99.90
52899;DHT22;38763;53.096;6.062;2022-11-20T03:10:14;-0.50;99.90
52899;DHT22;38763;53.096;6.062;2022-11-20T03:12:39;-0.40;99.90
52899;DHT22;38763;53.096;6.062;2022-11-20T03:15:05;-0.40;99.90
52899;DHT22;38763;53.096;6.062;2022-11-20T03:17:31;-0.40;99.90
52899;DHT22;38763;53.096;6.062;2022-11-20T03:19:57;-0.40;99.90
52899;DHT22;38763;53.096;6.062;2022-11-20T03:22:22;-0.30;99.90
52899;DHT22;38763;53.096;6.062;2022-11-20T03:24:48;-0.30;99.90
52899;DHT22;38763;53.096;6.062;2022-11-20T03:27:13;-0.30;99.90
52899;DHT22;38763;53.096;6.062;2022-11-20T03:29:39;-0.30;99.90
52899;DHT22;38763;53.096;6.062;2022-11-20T03:32:05;-0.30;99.90
52899;DHT22;38763;53.096;6.062;2022-11-20T03:34:30;-0.30;99.90
52899;DHT22;38763;53.096;6.062;2022-11-20T03:36:56;-0.30;99.90
52899;DHT22;38763;53.096;6.062;2022-11-20T03:39:21;-0.30;99.90
52899;DHT22;38763;53.096;6.062;2022-11-20T03:41:47;-0.20;99.90
52899;DHT22;38763;53.096;6.062;2022-11-20T03:44:13;-0.20;99.90
52899;DHT22;38763;53.096;6.062;2022-11-20T03:46:38;-0.20;99.90
52899;DHT22;38763;53.096;6.062;2022-11-20T03:49:04;-0.20;99.90
52899;DHT22;38763;53.096;6.062;2022-11-20T03:51:35;-0.20;99.90
52899;DHT22;38763;53.096;6.062;2022-11-20T03:54:03;-0.20;99.90
52899;DHT22;38763;53.096;6.062;2022-11-20T03:56:31;-0.20;99.90
52899;DHT22;38763;53.096;6.062;2022-11-20T03:58:57;-0.20;99.90
52899;DHT22;38763;53.096;6.062;2022-11-20T04:01:28;-0.30;99.90
52899;DHT22;38763;53.096;6.062;2022-11-20T04:03:55;-0.20;99.90
52899;DHT22;38763;53.096;6.062;2022-11-20T04:06:37;-0.20;99.90
52899;DHT22;38763;53.096;6.062;2022-11-20T04:09:03;-0.20;99.90
52899;DHT22;38763;53.096;6.062;2022-11-20T04:11:34;-0.10;99.90
52899;DHT22;38763;53.096;6.062;2022-11-20T04:14:02;-0.20;99.90
52899;DHT22;38763;53.096;6.062;2022-11-20T04:16:30;-0.10;99.90
52899;DHT22;38763;53.096;6.062;2022-11-20T04:18:58;-0.20;99.90
52899;DHT22;38763;53.096;6.062;2022-11-20T04:21:25;-0.20;99.90
52899;DHT22;38763;53.096;6.062;2022-11-20T04:23:52;-0.30;99.90
52899;DHT22;38763;53.096;6.062;2022-11-20T04:26:22;-0.20;99.90
52899;DHT22;38763;53.096;6.062;2022-11-20T04:28:48;-0.30;99.90
52899;DHT22;38763;53.096;6.062;2022-11-20T04:31:17;-0.30;99.90
52899;DHT22;38763;53.096;6.062;2022-11-20T04:33:43;-0.40;99.90
52899;DHT22;38763;53.096;6.062;2022-11-20T04:36:13;-0.40;99.90
52899;DHT22;38763;53.096;6.062;2022-11-20T04:38:39;-0.40;99.90
52899;DHT22;38763;53.096;6.062;2022-11-20T04:41:08;-0.40;99.90
52899;DHT22;38763;53.096;6.062;2022-11-20T04:43:35;-0.50;99.90
52899;DHT22;38763;53.096;6.062;2022-11-20T04:46:00;-0.50;99.90
52899;DHT22;38763;53.096;6.062;2022-11-20T04:48:28;-0.50;99.90
52899;DHT22;38763;53.096;6.062;2022-11-20T04:50:54;-0.60;99.90
52899;DHT22;38763;53.096;6.062;2022-11-20T04:53:20;-0.60;99.90
52899;DHT22;38763;53.096;6.062;2022-11-20T04:55:46;-0.60;99.90
52899;DHT22;38763;53.096;6.062;2022-11-20T04:58:12;-0.70;99.90
52899;DHT22;38763;53.096;6.062;2022-11-20T05:00:38;-0.70;99.90
52899;DHT22;38763;53.096;6.062;2022-11-20T05:03:04;-0.70;99.90
52899;DHT22;38763;53.096;6.062;2022-11-20T05:05:30;-0.60;99.90
52899;DHT22;38763;53.096;6.062;2022-11-20T05:07:56;-0.70;99.90
52899;DHT22;38763;53.096;6.062;2022-11-20T05:10:23;-0.70;99.90
52899;DHT22;38763;53.096;6.062;2022-11-20T05:12:49;-0.70;99.90
52899;DHT22;38763;53.096;6.062;2022-11-20T05:15:15;-0.70;99.90
52899;DHT22;38763;53.096;6.062;2022-11-20T05:17:40;-0.70;99.90
52899;DHT22;38763;53.096;6.062;2022-11-20T05:20:06;-0.80;99.90
52899;DHT22;38763;53.096;6.062;2022-11-20T05:22:32;-0.80;99.90
52899;DHT22;38763;53.096;6.062;2022-11-20T05:24:58;-0.80;99.90
52899;DHT22;38763;53.096;6.062;2022-11-20T05:27:23;-0.80;99.90
52899;DHT22;38763;53.096;6.062;2022-11-20T05:29:49;-0.80;99.90
52899;DHT22;38763;53.096;6.062;2022-11-20T05:32:14;-0.80;99.90
52899;DHT22;38763;53.096;6.062;2022-11-20T05:34:40;-0.90;99.90
52899;DHT22;38763;53.096;6.062;2022-11-20T05:37:06;-0.80;99.90
52899;DHT22;38763;53.096;6.062;2022-11-20T05:39:31;-0.80;99.90
52899;DHT22;38763;53.096;6.062;2022-11-20T05:41:57;-0.80;99.90
52899;DHT22;38763;53.096;6.062;2022-11-20T05:44:41;-0.80;99.90
52899;DHT22;38763;53.096;6.062;2022-11-20T05:47:06;-0.70;99.90
52899;DHT22;38763;53.096;6.062;2022-11-20T05:49:32;-0.70;99.90
52899;DHT22;38763;53.096;6.062;2022-11-20T05:51:58;-0.70;99.90
52899;DHT22;38763;53.096;6.062;2022-11-20T05:54:23;-0.70;99.90
52899;DHT22;38763;53.096;6.062;2022-11-20T05:56:49;-0.70;99.90
52899;DHT22;38763;53.096;6.062;2022-11-20T05:59:15;-0.70;99.90
52899;DHT22;38763;53.096;6.062;2022-11-20T06:01:40;-0.60;99.90
52899;DHT22;38763;53.096;6.062;2022-11-20T06:04:06;-0.60;99.90
52899;DHT22;38763;53.096;6.062;2022-11-20T06:06:32;-0.60;99.90
52899;DHT22;38763;53.096;6.062;2022-11-20T06:08:57;-0.60;99.90
52899;DHT22;38763;53.096;6.062;2022-11-20T06:11:24;-0.60;99.90
52899;DHT22;38763;53.096;6.062;2022-11-20T06:13:50;-0.60;99.90
52899;DHT22;38763;53.096;6.062;2022-11-20T06:16:18;-0.50;99.90
52899;DHT22;38763;53.096;6.062;2022-11-20T06:18:45;-0.50;99.90
52899;DHT22;38763;53.096;6.062;2022-11-20T06:21:16;-0.50;99.90
52899;DHT22;38763;53.096;6.062;2022-11-20T06:23:42;-0.50;99.90
52899;DHT22;38763;53.096;6.062;2022-11-20T06:26:10;-0.50;99.90
52899;DHT22;38763;53.096;6.062;2022-11-20T06:28:36;-0.50;99.90
52899;DHT22;38763;53.096;6.062;2022-11-20T06:31:02;-0.50;99.90
52899;DHT22;38763;53.096;6.062;2022-11-20T06:33:28;-0.50;99.90
52899;DHT22;38763;53.096;6.062;2022-11-20T06:35:58;-0.50;99.90
52899;DHT22;38763;53.096;6.062;2022-11-20T06:38:28;-0.50;99.90
52899;DHT22;38763;53.096;6.062;2022-11-20T06:40:54;-0.60;99.90
52899;DHT22;38763;53.096;6.062;2022-11-20T06:43:20;-0.70;99.90
52899;DHT22;38763;53.096;6.062;2022-11-20T06:45:45;-0.70;99.90
52899;DHT22;38763;53.096;6.062;2022-11-20T06:48:11;-0.70;99.90
52899;DHT22;38763;53.096;6.062;2022-11-20T06:50:37;-0.80;99.90
52899;DHT22;38763;53.096;6.062;2022-11-20T06:53:04;-0.80;99.90
52899;DHT22;38763;53.096;6.062;2022-11-20T06:55:30;-0.70;99.90
52899;DHT22;38763;53.096;6.062;2022-11-20T06:57:56;-0.70;99.90
52899;DHT22;38763;53.096;6.062;2022-11-20T07:00:22;-0.70;99.90
52899;DHT22;38763;53.096;6.062;2022-11-20T07:02:48;-0.70;99.90
52899;DHT22;38763;53.096;6.062;2022-11-20T07:05:13;-0.70;99.90
52899;DHT22;38763;53.096;6.062;2022-11-20T07:07:39;-0.70;99.90
52899;DHT22;38763;53.096;6.062;2022-11-20T07:10:05;-0.70;99.90
52899;DHT22;38763;53.096;6.062;2022-11-20T07:12:31;-0.70;99.90
52899;DHT22;38763;53.096;6.062;2022-11-20T07:14:56;-0.70;99.90
52899;DHT22;38763;53.096;6.062;2022-11-20T07:17:22;-0.70;99.90
52899;DHT22;38763;53.096;6.062;2022-11-20T07:19:48;-0.70;99.90
52899;DHT22;38763;53.096;6.062;2022-11-20T07:22:13;-0.70;99.90
52899;DHT22;38763;53.096;6.062;2022-11-20T07:24:39;-0.70;99.90
52899;DHT22;38763;53.096;6.062;2022-11-20T07:27:04;-0.70;99.90
52899;DHT22;38763;53.096;6.062;2022-11-20T07:29:30;-0.70;99.90
52899;DHT22;38763;53.096;6.062;2022-11-20T07:31:56;-0.60;99.90
52899;DHT22;38763;53.096;6.062;2022-11-20T07:34:22;-0.60;99.90
52899;DHT22;38763;53.096;6.062;2022-11-20T07:36:47;-0.60;99.90
52899;DHT22;38763;53.096;6.062;2022-11-20T07:39:13;-0.50;99.90
52899;DHT22;38763;53.096;6.062;2022-11-20T07:41:39;-0.60;99.90
52899;DHT22;38763;53.096;6.062;2022-11-20T07:44:04;-0.60;99.90
52899;DHT22;38763;53.096;6.062;2022-11-20T07:46:30;-0.60;99.90
52899;DHT22;38763;53.096;6.062;2022-11-20T07:48:56;-0.50;99.90
52899;DHT22;38763;53.096;6.062;2022-11-20T07:51:21;-0.50;99.90
52899;DHT22;38763;53.096;6.062;2022-11-20T07:53:47;-0.40;99.90
52899;DHT22;38763;53.096;6.062;2022-11-20T07:56:15;-0.50;99.90
52899;DHT22;38763;53.096;6.062;2022-11-20T07:58:41;-0.50;99.90
52899;DHT22;38763;53.096;6.062;2022-11-20T08:01:07;-0.50;99.90
52899;DHT22;38763;53.096;6.062;2022-11-20T08:03:33;-0.50;99.90
52899;DHT22;38763;53.096;6.062;2022-11-20T08:05:59;-0.40;99.90
52899;DHT22;38763;53.096;6.062;2022-11-20T08:08:28;-0.40;99.90
52899;DHT22;38763;53.096;6.062;2022-11-20T08:10:54;-0.40;99.90
52899;DHT22;38763;53.096;6.062;2022-11-20T08:13:41;-0.40;99.90
52899;DHT22;38763;53.096;6.062;2022-11-20T08:16:25;-0.40;99.90
52899;DHT22;38763;53.096;6.062;2022-11-20T08:18:51;-0.40;99.90
52899;DHT22;38763;53.096;6.062;2022-11-20T08:21:16;-0.30;99.90
52899;DHT22;38763;53.096;6.062;2022-11-20T08:23:42;-0.40;99.90
52899;DHT22;38763;53.096;6.062;2022-11-20T08:26:07;-0.30;99.90
52899;DHT22;38763;53.096;6.062;2022-11-20T08:28:33;-0.30;99.90
52899;DHT22;38763;53.096;6.062;2022-11-20T08:31:00;-0.30;99.90
52899;DHT22;38763;53.096;6.062;2022-11-20T08:33:26;-0.20;99.90
52899;DHT22;38763;53.096;6.062;2022-11-20T08:35:51;-0.20;99.90
52899;DHT22;38763;53.096;6.062;2022-11-20T08:38:17;-0.20;99.90
52899;DHT22;38763;53.096;6.062;2022-11-20T08:40:42;-0.10;99.90
52899;DHT22;38763;53.096;6.062;2022-11-20T08:43:28;-0.10;99.90
52899;DHT22;38763;53.096;6.062;2022-11-20T08:45:56;0.00;99.90
52899;DHT22;38763;53.096;6.062;2022-11-20T08:48:22;0.10;99.90
52899;DHT22;38763;53.096;6.062;2022-11-20T08:50:47;0.10;99.90
52899;DHT22;38763;53.096;6.062;2022-11-20T08:53:13;0.10;99.90
52899;DHT22;38763;53.096;6.062;2022-11-20T08:55:38;0.10;99.90
52899;DHT22;38763;53.096;6.062;2022-11-20T08:58:06;0.20;99.90
52899;DHT22;38763;53.096;6.062;2022-11-20T09:00:33;0.20;99.90
52899;DHT22;38763;53.096;6.062;2022-11-20T09:02:59;0.30;99.90
52899;DHT22;38763;53.096;6.062;2022-11-20T09:05:26;0.30;99.90
52899;DHT22;38763;53.096;6.062;2022-11-20T09:07:55;0.30;99.90
52899;DHT22;38763;53.096;6.062;2022-11-20T09:10:20;0.40;99.90
52899;DHT22;38763;53.096;6.062;2022-11-20T09:12:48;0.50;99.90
52899;DHT22;38763;53.096;6.062;2022-11-20T09:15:14;0.50;99.90
52899;DHT22;38763;53.096;6.062;2022-11-20T09:17:40;0.60;99.90
52899;DHT22;38763;53.096;6.062;2022-11-20T09:20:05;0.60;99.90
52899;DHT22;38763;53.096;6.062;2022-11-20T09:22:31;0.70;99.90
52899;DHT22;38763;53.096;6.062;2022-11-20T09:24:58;0.70;99.90
52899;DHT22;38763;53.096;6.062;2022-11-20T09:27:23;0.80;99.90
52899;DHT22;38763;53.096;6.062;2022-11-20T09:29:49;0.80;99.90
52899;DHT22;38763;53.096;6.062;2022-11-20T09:32:14;0.80;99.90
52899;DHT22;38763;53.096;6.062;2022-11-20T09:34:40;0.90;99.90
52899;DHT22;38763;53.096;6.062;2022-11-20T09:37:05;0.90;99.90
52899;DHT22;38763;53.096;6.062;2022-11-20T09:39:31;1.00;99.90
52899;DHT22;38763;53.096;6.062;2022-11-20T09:42:05;1.00;99.90
52899;DHT22;38763;53.096;6.062;2022-11-20T09:44:56;1.00;99.90
52899;DHT22;38763;53.096;6.062;2022-11-20T09:47:31;1.10;99.90
52899;DHT22;38763;53.096;6.062;2022-11-20T09:53:00;1.20;99.90
52899;DHT22;38763;53.096;6.062;2022-11-20T09:55:31;1.20;99.90
52899;DHT22;38763;53.096;6.062;2022-11-20T09:57:58;1.30;99.90
52899;DHT22;38763;53.096;6.062;2022-11-20T10:00:25;1.30;99.90
52899;DHT22;38763;53.096;6.062;2022-11-20T10:05:28;1.40;99.90
52899;DHT22;38763;53.096;6.062;2022-11-20T10:08:13;1.40;99.90
52899;DHT22;38763;53.096;6.062;2022-11-20T10:16:38;1.50;99.90
52899;DHT22;38763;53.096;6.062;2022-11-20T10:23:11;1.50;99.90
52899;DHT22;38763;53.096;6.062;2022-11-20T10:25:14;1.50;99.90
52899;DHT22;38763;53.096;6.062;2022-11-20T10:30:40;1.70;99.90
52899;DHT22;38763;53.096;6.062;2022-11-20T10:33:24;1.80;99.90
52899;DHT22;38763;53.096;6.062;2022-11-20T10:36:16;1.90;99.90
52899;DHT22;38763;53.096;6.062;2022-11-20T10:38:48;2.00;99.90
52899;DHT22;38763;53.096;6.062;2022-11-20T10:41:32;2.00;99.90
52899;DHT22;38763;53.096;6.062;2022-11-20T10:44:16;2.00;99.90
52899;DHT22;38763;53.096;6.062;2022-11-20T10:47:02;2.10;99.90
52899;DHT22;38763;53.096;6.062;2022-11-20T10:49:30;2.10;99.90
52899;DHT22;38763;53.096;6.062;2022-11-20T10:52:17;2.10;99.90
52899;DHT22;38763;53.096;6.062;2022-11-20T10:54:55;2.10;99.90
52899;DHT22;38763;53.096;6.062;2022-11-20T11:00:04;2.30;99.90
52899;DHT22;38763;53.096;6.062;2022-11-20T11:02:51;2.30;99.90
52899;DHT22;38763;53.096;6.062;2022-11-20T11:07:55;2.50;99.90
52899;DHT22;38763;53.096;6.062;2022-11-20T11:10:26;2.50;99.90
52899;DHT22;38763;53.096;6.062;2022-11-20T11:12:53;2.60;99.90
52899;DHT22;38763;53.096;6.062;2022-11-20T11:15:36;2.70;99.90
52899;DHT22;38763;53.096;6.062;2022-11-20T11:18:02;2.70;99.90
52899;DHT22;38763;53.096;6.062;2022-11-20T11:20:27;2.80;99.90
52899;DHT22;38763;53.096;6.062;2022-11-20T11:22:55;2.80;99.90
52899;DHT22;38763;53.096;6.062;2022-11-20T11:25:31;2.80;99.90
52899;DHT22;38763;53.096;6.062;2022-11-20T11:28:21;2.80;99.90
52899;DHT22;38763;53.096;6.062;2022-11-20T11:30:47;2.80;99.90
52899;DHT22;38763;53.096;6.062;2022-11-20T11:33:21;2.90;99.90
52899;DHT22;38763;53.096;6.062;2022-11-20T11:35:49;2.90;99.90
52899;DHT22;38763;53.096;6.062;2022-11-20T11:38:22;3.00;99.90
52899;DHT22;38763;53.096;6.062;2022-11-20T11:40:49;3.00;99.90
52899;DHT22;38763;53.096;6.062;2022-11-20T11:43:26;3.00;99.90
52899;DHT22;38763;53.096;6.062;2022-11-20T11:49:18;3.10;99.90
52899;DHT22;38763;53.096;6.062;2022-11-20T11:54:30;3.00;99.90
52899;DHT22;38763;53.096;6.062;2022-11-20T11:57:05;3.00;99.90
52899;DHT22;38763;53.096;6.062;2022-11-20T11:59:49;3.00;99.90
52899;DHT22;38763;53.096;6.062;2022-11-20T12:04:57;3.10;99.90
52899;DHT22;38763;53.096;6.062;2022-11-20T12:15:50;3.00;99.90
52899;DHT22;38763;53.096;6.062;2022-11-20T12:18:20;2.90;99.90
52899;DHT22;38763;53.096;6.062;2022-11-20T12:24:00;2.90;99.90
52899;DHT22;38763;53.096;6.062;2022-11-20T12:26:45;2.90;99.90
52899;DHT22;38763;53.096;6.062;2022-11-20T12:37:35;3.10;99.90
52899;DHT22;38763;53.096;6.062;2022-11-20T12:40:27;3.10;99.90
52899;DHT22;38763;53.096;6.062;2022-11-20T12:43:24;3.10;99.90
52899;DHT22;38763;53.096;6.062;2022-11-20T12:51:44;3.10;99.90
52899;DHT22;38763;53.096;6.062;2022-11-20T13:02:42;3.00;99.90
52899;DHT22;38763;53.096;6.062;2022-11-20T13:07:49;3.00;99.90
52899;DHT22;38763;53.096;6.062;2022-11-20T13:10:31;3.10;99.90
52899;DHT22;38763;53.096;6.062;2022-11-20T13:13:35;3.00;99.90
52899;DHT22;38763;53.096;6.062;2022-11-20T13:16:19;3.00;99.90
52899;DHT22;38763;53.096;6.062;2022-11-20T13:18:45;3.00;99.90
52899;DHT22;38763;53.096;6.062;2022-11-20T13:21:20;3.00;99.90
52899;DHT22;38763;53.096;6.062;2022-11-20T13:23:46;3.00;99.90
52899;DHT22;38763;53.096;6.062;2022-11-20T13:26:21;3.00;99.90
52899;DHT22;38763;53.096;6.062;2022-11-20T13:29:09;3.00;99.90
52899;DHT22;38763;53.096;6.062;2022-11-20T13:31:37;3.00;99.90
52899;DHT22;38763;53.096;6.062;2022-11-20T13:34:10;3.00;99.90
52899;DHT22;38763;53.096;6.062;2022-11-20T13:36:49;3.00;99.90
52899;DHT22;38763;53.096;6.062;2022-11-20T13:39:24;3.00;99.90
52899;DHT22;38763;53.096;6.062;2022-11-20T13:42:25;3.00;99.90
52899;DHT22;38763;53.096;6.062;2022-11-20T13:45:01;2.90;99.90
52899;DHT22;38763;53.096;6.062;2022-11-20T13:47:28;2.90;99.90
52899;DHT22;38763;53.096;6.062;2022-11-20T13:49:55;2.90;99.90
52899;DHT22;38763;53.096;6.062;2022-11-20T14:00:48;2.90;99.90
52899;DHT22;38763;53.096;6.062;2022-11-20T14:03:21;2.80;99.90
52899;DHT22;38763;53.096;6.062;2022-11-20T14:05:54;2.80;99.90
52899;DHT22;38763;53.096;6.062;2022-11-20T14:08:35;2.80;99.90
52899;DHT22;38763;53.096;6.062;2022-11-20T14:11:15;2.80;99.90
52899;DHT22;38763;53.096;6.062;2022-11-20T14:14:10;2.80;99.90
52899;DHT22;38763;53.096;6.062;2022-11-20T14:16:38;2.70;99.90
52899;DHT22;38763;53.096;6.062;2022-11-20T14:19:26;2.70;99.90
52899;DHT22;38763;53.096;6.062;2022-11-20T14:22:06;2.70;99.90
52899;DHT22;38763;53.096;6.062;2022-11-20T14:24:31;2.70;99.90
52899;DHT22;38763;53.096;6.062;2022-11-20T14:26:57;2.70;99.90
52899;DHT22;38763;53.096;6.062;2022-11-20T14:29:27;2.70;99.90
52899;DHT22;38763;53.096;6.062;2022-11-20T14:31:55;2.60;99.90
52899;DHT22;38763;53.096;6.062;2022-11-20T14:34:27;2.70;99.90
52899;DHT22;38763;53.096;6.062;2022-11-20T14:36:59;2.60;99.90
52899;DHT22;38763;53.096;6.062;2022-11-20T14:41:54;2.60;99.90
52899;DHT22;38763;53.096;6.062;2022-11-20T14:44:25;2.60;99.90
52899;DHT22;38763;53.096;6.062;2022-11-20T14:46:52;2.60;99.90
52899;DHT22;38763;53.096;6.062;2022-11-20T14:49:18;2.60;99.90
52899;DHT22;38763;53.096;6.062;2022-11-20T14:51:45;2.60;99.90
52899;DHT22;38763;53.096;6.062;2022-11-20T14:54:19;2.60;99.90
52899;DHT22;38763;53.096;6.062;2022-11-20T14:56:58;2.50;99.90
52899;DHT22;38763;53.096;6.062;2022-11-20T14:59:32;2.50;99.90
52899;DHT22;38763;53.096;6.062;2022-11-20T15:02:07;2.50;99.90
52899;DHT22;38763;53.096;6.062;2022-11-20T15:04:47;2.50;99.90
52899;DHT22;38763;53.096;6.062;2022-11-20T15:07:24;2.50;99.90
52899;DHT22;38763;53.096;6.062;2022-11-20T15:10:07;2.50;99.90
52899;DHT22;38763;53.096;6.062;2022-11-20T15:12:39;2.50;99.90
52899;DHT22;38763;53.096;6.062;2022-11-20T15:15:06;2.50;99.90
52899;DHT22;38763;53.096;6.062;2022-11-20T15:17:32;2.50;99.90
52899;DHT22;38763;53.096;6.062;2022-11-20T15:20:02;2.50;99.90
52899;DHT22;38763;53.096;6.062;2022-11-20T15:22:28;2.50;99.90
52899;DHT22;38763;53.096;6.062;2022-11-20T15:24:54;2.40;99.90
52899;DHT22;38763;53.096;6.062;2022-11-20T15:27:20;2.40;99.90
52899;DHT22;38763;53.096;6.062;2022-11-20T15:29:45;2.40;99.90
52899;DHT22;38763;53.096;6.062;2022-11-20T15:32:11;2.40;99.90
52899;DHT22;38763;53.096;6.062;2022-11-20T15:34:36;2.40;99.90
52899;DHT22;38763;53.096;6.062;2022-11-20T15:37:02;2.40;99.90
52899;DHT22;38763;53.096;6.062;2022-11-20T15:39:28;2.40;99.90
52899;DHT22;38763;53.096;6.062;2022-11-20T15:41:53;2.40;99.90
52899;DHT22;38763;53.096;6.062;2022-11-20T15:44:19;2.40;99.90
52899;DHT22;38763;53.096;6.062;2022-11-20T15:46:44;2.40;99.90
52899;DHT22;38763;53.096;6.062;2022-11-20T15:49:16;2.30;99.90
52899;DHT22;38763;53.096;6.062;2022-11-20T15:51:44;2.30;99.90
52899;DHT22;38763;53.096;6.062;2022-11-20T15:54:17;2.30;99.90
52899;DHT22;38763;53.096;6.062;2022-11-20T15:56:54;2.30;99.90
52899;DHT22;38763;53.096;6.062;2022-11-20T15:59:20;2.30;99.90
52899;DHT22;38763;53.096;6.062;2022-11-20T16:01:45;2.30;99.90
52899;DHT22;38763;53.096;6.062;2022-11-20T16:04:13;2.30;99.90
52899;DHT22;38763;53.096;6.062;2022-11-20T16:06:39;2.30;99.90
52899;DHT22;38763;53.096;6.062;2022-11-20T16:09:06;2.20;99.90
52899;DHT22;38763;53.096;6.062;2022-11-20T16:11:32;2.20;99.90
52899;DHT22;38763;53.096;6.062;2022-11-20T16:13:58;2.20;99.90
52899;DHT22;38763;53.096;6.062;2022-11-20T16:16:42;2.20;99.90
52899;DHT22;38763;53.096;6.062;2022-11-20T16:19:12;2.20;99.90
52899;DHT22;38763;53.096;6.062;2022-11-20T16:21:38;2.20;99.90
52899;DHT22;38763;53.096;6.062;2022-11-20T16:24:07;2.20;99.90
52899;DHT22;38763;53.096;6.062;2022-11-20T16:26:33;2.20;99.90
52899;DHT22;38763;53.096;6.062;2022-11-20T16:29:00;2.20;99.90
52899;DHT22;38763;53.096;6.062;2022-11-20T16:31:28;2.20;99.90
52899;DHT22;38763;53.096;6.062;2022-11-20T16:33:56;2.20;99.90
52899;DHT22;38763;53.096;6.062;2022-11-20T16:36:24;2.10;99.90
52899;DHT22;38763;53.096;6.062;2022-11-20T16:38:55;2.10;99.90
52899;DHT22;38763;53.096;6.062;2022-11-20T16:41:22;2.10;99.90
52899;DHT22;38763;53.096;6.062;2022-11-20T16:43:50;2.10;99.90
52899;DHT22;38763;53.096;6.062;2022-11-20T16:46:19;2.10;99.90
52899;DHT22;38763;53.096;6.062;2022-11-20T16:48:51;2.10;99.90
52899;DHT22;38763;53.096;6.062;2022-11-20T16:51:17;2.10;99.90
52899;DHT22;38763;53.096;6.062;2022-11-20T16:53:42;2.10;99.90
52899;DHT22;38763;53.096;6.062;2022-11-20T16:56:13;2.10;99.90
52899;DHT22;38763;53.096;6.062;2022-11-20T16:58:41;2.10;99.90
52899;DHT22;38763;53.096;6.062;2022-11-20T17:01:08;2.10;99.90
52899;DHT22;38763;53.096;6.062;2022-11-20T17:03:38;2.10;99.90
52899;DHT22;38763;53.096;6.062;2022-11-20T17:06:13;2.10;99.90
52899;DHT22;38763;53.096;6.062;2022-11-20T17:08:38;2.00;99.90
52899;DHT22;38763;53.096;6.062;2022-11-20T17:11:09;2.00;99.90